sensor_id;sensor_type;location;lat;lon;timestamp;P1;durP1;ratioP1;P2;durP2;ratioP2
1523;SDS011;755;53.658;10.118;2022-11-23T00:06:39;66.15;;;24.52;;
1523;SDS011;755;53.658;10.118;2022-11-23T00:16:55;64.77;;;21.53;;
1523;SDS011;755;53.658;10.118;2022-11-23T00:27:10;57.53;;;22.58;;
1523;SDS011;755;53.658;10.118;2022-11-23T00:48:22;56.30;;;22.15;;
1523;SDS011;755;53.658;10.118;2022-11-23T00:58:29;52.35;;;20.90;;
1523;SDS011;755;53.658;10.118;2022-11-23T01:08:32;58.00;;;21.25;;
1523;SDS011;755;53.658;10.118;2022-11-23T01:18:36;53.80;;;20.85;;
1523;SDS011;755;53.658;10.118;2022-11-23T01:28:39;56.05;;;21.85;;
1523;SDS011;755;53.658;10.118;2022-11-23T01:38:43;47.88;;;20.30;;
1523;SDS011;755;53.658;10.118;2022-11-23T01:48:48;59.55;;;22.05;;
1523;SDS011;755;53.658;10.118;2022-11-23T01:58:55;55.72;;;20.70;;
1523;SDS011;755;53.658;10.118;2022-11-23T02:09:00;58.53;;;20.92;;
1523;SDS011;755;53.658;10.118;2022-11-23T02:19:05;62.47;;;22.42;;
1523;SDS011;755;53.658;10.118;2022-11-23T02:29:25;57.00;;;20.58;;
1523;SDS011;755;53.658;10.118;2022-11-23T02:39:29;52.63;;;20.48;;
1523;SDS011;755;53.658;10.118;2022-11-23T02:49:34;55.65;;;20.48;;
1523;SDS011;755;53.658;10.118;2022-11-23T02:59:36;65.53;;;20.25;;
1523;SDS011;755;53.658;10.118;2022-11-23T03:09:39;62.55;;;21.95;;
1523;SDS011;755;53.658;10.118;2022-11-23T03:19:41;62.28;;;21.35;;
1523;SDS011;755;53.658;10.118;2022-11-23T03:29:44;54.72;;;19.88;;
1523;SDS011;755;53.658;10.118;2022-11-23T03:39:46;55.47;;;19.85;;
1523;SDS011;755;53.658;10.118;2022-11-23T03:49:49;62.72;;;20.02;;
1523;SDS011;755;53.658;10.118;2022-11-23T03:59:51;62.65;;;22.05;;
1523;SDS011;755;53.658;10.118;2022-11-23T04:09:55;55.97;;;19.85;;
1523;SDS011;755;53.658;10.118;2022-11-23T04:19:56;62.17;;;21.40;;
1523;SDS011;755;53.658;10.118;2022-11-23T04:30:00;58.22;;;21.13;;
1523;SDS011;755;53.658;10.118;2022-11-23T04:40:02;49.90;;;20.05;;
1523;SDS011;755;53.658;10.118;2022-11-23T04:50:06;58.72;;;19.38;;
1523;SDS011;755;53.658;10.118;2022-11-23T05:00:09;48.78;;;18.40;;
1523;SDS011;755;53.658;10.118;2022-11-23T05:10:13;54.72;;;19.45;;
1523;SDS011;755;53.658;10.118;2022-11-23T05:20:16;45.85;;;17.80;;
1523;SDS011;755;53.658;10.118;2022-11-23T05:30:19;50.67;;;20.23;;
1523;SDS011;755;53.658;10.118;2022-11-23T05:40:21;53.65;;;19.50;;
1523;SDS011;755;53.658;10.118;2022-11-23T05:50:25;45.25;;;17.77;;
1523;SDS011;755;53.658;10.118;2022-11-23T06:00:28;43.40;;;18.13;;
1523;SDS011;755;53.658;10.118;2022-11-23T06:10:31;50.05;;;19.10;;
1523;SDS011;755;53.658;10.118;2022-11-23T06:20:33;56.42;;;18.25;;
1523;SDS011;755;53.658;10.118;2022-11-23T06:30:37;52.42;;;18.27;;
1523;SDS011;755;53.658;10.118;2022-11-23T06:40:38;49.60;;;18.35;;
1523;SDS011;755;53.658;10.118;2022-11-23T06:50:42;42.60;;;16.60;;
1523;SDS011;755;53.658;10.118;2022-11-23T07:00:44;49.60;;;17.92;;
1523;SDS011;755;53.658;10.118;2022-11-23T07:10:47;50.90;;;19.25;;
1523;SDS011;755;53.658;10.118;2022-11-23T07:20:49;50.30;;;19.45;;
1523;SDS011;755;53.658;10.118;2022-11-23T07:30:53;42.08;;;15.80;;
1523;SDS011;755;53.658;10.118;2022-11-23T07:41:05;53.63;;;18.83;;
1523;SDS011;755;53.658;10.118;2022-11-23T07:51:54;47.42;;;17.48;;
1523;SDS011;755;53.658;10.118;2022-11-23T08:02:04;44.63;;;17.20;;
1523;SDS011;755;53.658;10.118;2022-11-23T08:12:08;49.28;;;16.70;;
1523;SDS011;755;53.658;10.118;2022-11-23T08:22:10;42.95;;;16.00;;
1523;SDS011;755;53.658;10.118;2022-11-23T08:32:13;43.08;;;15.85;;
1523;SDS011;755;53.658;10.118;2022-11-23T08:42:17;50.55;;;16.90;;
1523;SDS011;755;53.658;10.118;2022-11-23T09:03:18;42.75;;;16.08;;
1523;SDS011;755;53.658;10.118;2022-11-23T09:13:20;41.55;;;14.95;;
1523;SDS011;755;53.658;10.118;2022-11-23T09:23:34;31.63;;;13.55;;
1523;SDS011;755;53.658;10.118;2022-11-23T09:33:37;25.30;;;12.60;;
1523;SDS011;755;53.658;10.118;2022-11-23T09:43:46;30.83;;;13.32;;
1523;SDS011;755;53.658;10.118;2022-11-23T09:53:58;44.40;;;12.90;;
1523;SDS011;755;53.658;10.118;2022-11-23T10:04:10;26.45;;;11.05;;
1523;SDS011;755;53.658;10.118;2022-11-23T10:14:29;24.35;;;11.80;;
1523;SDS011;755;53.658;10.118;2022-11-23T10:24:50;29.50;;;11.40;;
1523;SDS011;755;53.658;10.118;2022-11-23T10:34:57;26.50;;;10.17;;
1523;SDS011;755;53.658;10.118;2022-11-23T10:45:09;25.65;;;10.02;;
1523;SDS011;755;53.658;10.118;2022-11-23T10:55:45;23.10;;;10.25;;
1523;SDS011;755;53.658;10.118;2022-11-23T11:05:51;19.47;;;8.30;;
1523;SDS011;755;53.658;10.118;2022-11-23T11:15:58;28.55;;;9.45;;
1523;SDS011;755;53.658;10.118;2022-11-23T11:26:05;25.88;;;8.82;;
1523;SDS011;755;53.658;10.118;2022-11-23T11:36:17;20.10;;;8.98;;
1523;SDS011;755;53.658;10.118;2022-11-23T11:46:28;25.02;;;9.35;;
1523;SDS011;755;53.658;10.118;2022-11-23T11:56:38;27.08;;;10.65;;
1523;SDS011;755;53.658;10.118;2022-11-23T12:06:47;29.55;;;9.80;;
1523;SDS011;755;53.658;10.118;2022-11-23T12:16:55;31.77;;;10.63;;
1523;SDS011;755;53.658;10.118;2022-11-23T12:27:08;26.63;;;10.48;;
1523;SDS011;755;53.658;10.118;2022-11-23T12:37:24;25.10;;;9.52;;
1523;SDS011;755;53.658;10.118;2022-11-23T12:47:40;19.37;;;8.43;;
1523;SDS011;755;53.658;10.118;2022-11-23T12:57:53;20.30;;;8.35;;
1523;SDS011;755;53.658;10.118;2022-11-23T13:08:05;15.70;;;6.13;;
1523;SDS011;755;53.658;10.118;2022-11-23T13:18:18;23.73;;;8.10;;
1523;SDS011;755;53.658;10.118;2022-11-23T13:28:36;17.38;;;6.88;;
1523;SDS011;755;53.658;10.118;2022-11-23T13:38:39;19.20;;;6.47;;
1523;SDS011;755;53.658;10.118;2022-11-23T13:48:46;16.50;;;6.47;;
1523;SDS011;755;53.658;10.118;2022-11-23T13:58:51;21.60;;;6.70;;
1523;SDS011;755;53.658;10.118;2022-11-23T14:08:58;27.00;;;8.73;;
1523;SDS011;755;53.658;10.118;2022-11-23T14:19:04;22.25;;;6.03;;
1523;SDS011;755;53.658;10.118;2022-11-23T14:29:19;19.25;;;5.60;;
1523;SDS011;755;53.658;10.118;2022-11-23T14:39:45;13.55;;;5.97;;
1523;SDS011;755;53.658;10.118;2022-11-23T14:59:58;13.63;;;6.45;;
1523;SDS011;755;53.658;10.118;2022-11-23T15:10:04;23.00;;;8.25;;
1523;SDS011;755;53.658;10.118;2022-11-23T15:20:17;19.38;;;7.57;;
1523;SDS011;755;53.658;10.118;2022-11-23T15:30:25;22.52;;;6.88;;
1523;SDS011;755;53.658;10.118;2022-11-23T15:40:30;21.23;;;6.25;;
1523;SDS011;755;53.658;10.118;2022-11-23T15:50:35;17.45;;;6.60;;
1523;SDS011;755;53.658;10.118;2022-11-23T16:00:47;17.23;;;6.57;;
1523;SDS011;755;53.658;10.118;2022-11-23T16:10:53;23.20;;;9.60;;
1523;SDS011;755;53.658;10.118;2022-11-23T16:20:56;14.80;;;7.47;;
1523;SDS011;755;53.658;10.118;2022-11-23T16:31:02;21.77;;;7.88;;
1523;SDS011;755;53.658;10.118;2022-11-23T16:41:04;21.67;;;7.03;;
1523;SDS011;755;53.658;10.118;2022-11-23T16:51:07;20.13;;;7.55;;
1523;SDS011;755;53.658;10.118;2022-11-23T17:01:13;22.70;;;7.05;;
1523;SDS011;755;53.658;10.118;2022-11-23T17:11:21;19.05;;;7.53;;
1523;SDS011;755;53.658;10.118;2022-11-23T17:21:25;21.93;;;9.90;;
1523;SDS011;755;53.658;10.118;2022-11-23T17:31:28;19.27;;;7.80;;
1523;SDS011;755;53.658;10.118;2022-11-23T17:41:31;18.00;;;7.20;;
1523;SDS011;755;53.658;10.118;2022-11-23T17:51:34;19.38;;;9.18;;
1523;SDS011;755;53.658;10.118;2022-11-23T18:01:36;22.83;;;8.60;;
1523;SDS011;755;53.658;10.118;2022-11-23T18:11:39;22.77;;;8.65;;
1523;SDS011;755;53.658;10.118;2022-11-23T18:21:41;22.08;;;8.90;;
1523;SDS011;755;53.658;10.118;2022-11-23T18:31:50;24.85;;;9.52;;
1523;SDS011;755;53.658;10.118;2022-11-23T18:41:52;28.63;;;9.15;;
1523;SDS011;755;53.658;10.118;2022-11-23T18:51:56;16.40;;;8.65;;
1523;SDS011;755;53.658;10.118;2022-11-23T19:01:57;27.02;;;9.35;;
1523;SDS011;755;53.658;10.118;2022-11-23T19:12:01;31.05;;;13.27;;
1523;SDS011;755;53.658;10.118;2022-11-23T19:22:04;33.38;;;12.65;;
1523;SDS011;755;53.658;10.118;2022-11-23T19:32:07;28.67;;;11.48;;
1523;SDS011;755;53.658;10.118;2022-11-23T19:42:09;27.27;;;12.95;;
1523;SDS011;755;53.658;10.118;2022-11-23T19:52:12;24.27;;;10.60;;
1523;SDS011;755;53.658;10.118;2022-11-23T20:02:19;23.33;;;10.85;;
1523;SDS011;755;53.658;10.118;2022-11-23T20:12:25;19.98;;;9.60;;
1523;SDS011;755;53.658;10.118;2022-11-23T20:22:27;32.80;;;12.68;;
1523;SDS011;755;53.658;10.118;2022-11-23T20:32:31;29.42;;;11.07;;
1523;SDS011;755;53.658;10.118;2022-11-23T20:42:33;23.90;;;10.05;;
1523;SDS011;755;53.658;10.118;2022-11-23T20:52:37;19.95;;;8.77;;
1523;SDS011;755;53.658;10.118;2022-11-23T21:02:39;24.95;;;10.70;;
1523;SDS011;755;53.658;10.118;2022-11-23T21:12:42;29.80;;;12.05;;
1523;SDS011;755;53.658;10.118;2022-11-23T21:23:02;38.50;;;14.15;;
1523;SDS011;755;53.658;10.118;2022-11-23T21:33:05;33.40;;;12.07;;
1523;SDS011;755;53.658;10.118;2022-11-23T21:43:07;25.42;;;10.63;;
1523;SDS011;755;53.658;10.118;2022-11-23T21:53:10;24.10;;;9.02;;
1523;SDS011;755;53.658;10.118;2022-11-23T22:03:12;22.15;;;9.88;;
1523;SDS011;755;53.658;10.118;2022-11-23T22:13:16;25.33;;;8.57;;
1523;SDS011;755;53.658;10.118;2022-11-23T22:23:19;21.85;;;8.38;;
1523;SDS011;755;53.658;10.118;2022-11-23T22:33:22;20.95;;;8.95;;
1523;SDS011;755;53.658;10.118;2022-11-23T22:43:24;25.17;;;8.75;;
1523;SDS011;755;53.658;10.118;2022-11-23T22:53:27;21.17;;;8.43;;
1523;SDS011;755;53.658;10.118;2022-11-23T23:03:30;19.70;;;7.10;;
1523;SDS011;755;53.658;10.118;2022-11-23T23:13:33;20.58;;;7.85;;
1523;SDS011;755;53.658;10.118;2022-11-23T23:23:36;20.50;;;8.57;;
1523;SDS011;755;53.658;10.118;2022-11-23T23:33:40;32.53;;;9.43;;
1523;SDS011;755;53.658;10.118;2022-11-23T23:43:42;15.27;;;6.60;;
1523;SDS011;755;53.658;10.118;2022-11-23T23:53:49;15.13;;;7.18;;
